createdAt,value
2018-08-11T00:01:37.058Z,96091.00
2018-08-11T00:04:06.095Z,96092.00
2018-08-11T00:06:35.093Z,96091.00
2018-08-11T00:09:06.101Z,96092.00
2018-08-11T00:11:35.101Z,96085.00
2018-08-11T00:14:04.126Z,96079.00
2018-08-11T00:16:33.118Z,96084.00
2018-08-11T00:19:02.118Z,96082.00
2018-08-11T00:21:31.122Z,96082.00
2018-08-11T00:24:00.167Z,96084.00
2018-08-11T00:26:29.186Z,96097.00
2018-08-11T00:28:58.203Z,96095.00
2018-08-11T00:31:27.201Z,96088.00
2018-08-11T00:33:56.216Z,96088.00
2018-08-11T00:36:25.282Z,96079.00
2018-08-11T00:38:54.326Z,96082.00
2018-08-11T00:41:23.368Z,96080.00
2018-08-11T00:43:52.387Z,96078.00
2018-08-11T00:46:21.386Z,96077.00
2018-08-11T00:48:50.386Z,96086.00
2018-08-11T00:51:19.411Z,96070.00
2018-08-11T00:53:48.442Z,96066.00
2018-08-11T00:56:17.444Z,96074.00
2018-08-11T00:58:46.431Z,96073.00
2018-08-11T01:01:15.441Z,96078.00
2018-08-11T01:03:44.461Z,96074.00
2018-08-11T01:06:13.461Z,96078.00
2018-08-11T01:08:42.469Z,96072.00
2018-08-11T01:11:11.541Z,96071.00
2018-08-11T01:13:40.555Z,96068.00
2018-08-11T01:16:09.573Z,96060.00
2018-08-11T01:18:38.614Z,96066.00
2018-08-11T01:21:07.742Z,96069.00
2018-08-11T01:23:36.731Z,96064.00
2018-08-11T01:26:05.734Z,96072.00
2018-08-11T01:28:34.725Z,96070.00
2018-08-11T01:31:03.717Z,96068.00
2018-08-11T01:33:32.725Z,96063.00
2018-08-11T01:36:01.740Z,96063.00
2018-08-11T01:38:30.765Z,96056.00
2018-08-11T01:40:59.765Z,96061.00
2018-08-11T01:43:28.806Z,96065.00
2018-08-11T01:45:57.808Z,96063.00
2018-08-11T01:48:26.806Z,96065.00
2018-08-11T01:50:55.818Z,96075.00
2018-08-11T01:53:24.821Z,96069.00
2018-08-11T01:55:53.847Z,96073.00
2018-08-11T01:58:22.867Z,96064.00
2018-08-11T02:00:51.861Z,96058.00
2018-08-11T02:03:20.863Z,96053.00
2018-08-11T02:05:49.862Z,96057.00
2018-08-11T02:08:18.854Z,96057.00
2018-08-11T02:10:47.868Z,96048.00
2018-08-11T02:13:16.854Z,96053.00
2018-08-11T02:15:45.850Z,96047.00
2018-08-11T02:18:14.842Z,96048.00
2018-08-11T02:20:43.860Z,96048.00
2018-08-11T02:23:12.853Z,96048.00
2018-08-11T02:25:41.838Z,96048.00
2018-08-11T02:28:10.818Z,96042.00
2018-08-11T02:30:39.851Z,96035.00
2018-08-11T02:33:08.960Z,96034.00
2018-08-11T02:35:37.959Z,96038.00
2018-08-11T02:38:06.970Z,96035.00
2018-08-11T02:40:36.132Z,96040.00
2018-08-11T02:43:05.129Z,96038.00
2018-08-11T02:45:34.174Z,96030.00
2018-08-11T02:48:03.155Z,96028.00
2018-08-11T02:50:32.149Z,96031.00
2018-08-11T02:53:01.130Z,96030.00
2018-08-11T02:55:30.130Z,96029.00
2018-08-11T02:57:59.133Z,96029.00
2018-08-11T03:00:28.139Z,96029.00
2018-08-11T03:02:57.134Z,96029.00
2018-08-11T03:05:26.162Z,96019.00
2018-08-11T03:07:55.191Z,96028.00
2018-08-11T03:10:24.174Z,96031.00
2018-08-11T03:12:53.176Z,96024.00
2018-08-11T03:15:22.179Z,96026.00
2018-08-11T03:17:51.190Z,96023.00
2018-08-11T03:20:20.198Z,96022.00
2018-08-11T03:22:49.195Z,96027.00
2018-08-11T03:25:18.178Z,96028.00
2018-08-11T03:27:47.178Z,96024.00
2018-08-11T03:30:16.194Z,96033.00
2018-08-11T03:32:45.167Z,96033.00
2018-08-11T03:35:14.182Z,96036.00
2018-08-11T03:37:43.157Z,96031.00
2018-08-11T03:40:12.178Z,96027.00
2018-08-11T03:42:41.821Z,96030.00
2018-08-11T03:45:11.158Z,96036.00
2018-08-11T03:47:40.166Z,96030.00
2018-08-11T03:50:09.158Z,96029.00
2018-08-11T03:52:38.302Z,96040.00
2018-08-11T03:55:07.257Z,96040.00
2018-08-11T03:57:36.249Z,96048.00
2018-08-11T04:00:08.546Z,96042.00
2018-08-11T04:02:37.621Z,96044.00
2018-08-11T04:05:06.714Z,96050.00
2018-08-11T04:07:35.733Z,96049.00
2018-08-11T04:10:05.497Z,96045.00
2018-08-11T04:12:34.573Z,96055.00
2018-08-11T04:15:03.666Z,96055.00
2018-08-11T04:17:38.222Z,96049.00
2018-08-11T04:20:08.605Z,96049.00
2018-08-11T04:22:37.681Z,96055.00
2018-08-11T04:25:07.390Z,96061.00
2018-08-11T04:27:36.873Z,96059.00
2018-08-11T04:30:08.247Z,96050.00
2018-08-11T04:32:37.250Z,96050.00
2018-08-11T04:35:06.259Z,96045.00
2018-08-11T04:37:35.263Z,96056.00
2018-08-11T04:40:04.812Z,96058.00
2018-08-11T04:42:33.802Z,96066.00
2018-08-11T04:45:02.846Z,96058.00
2018-08-11T04:47:31.844Z,96067.00
2018-08-11T04:50:00.837Z,96077.00
2018-08-11T04:52:29.832Z,96068.00
2018-08-11T04:54:58.819Z,96069.00
2018-08-11T04:57:27.818Z,96069.00
2018-08-11T04:59:56.833Z,96067.00
2018-08-11T05:02:25.833Z,96071.00
2018-08-11T05:04:54.822Z,96075.00
2018-08-11T05:07:23.813Z,96071.00
2018-08-11T05:09:52.813Z,96069.00
2018-08-11T05:12:21.920Z,96068.00
2018-08-11T05:14:50.906Z,96066.00
2018-08-11T05:17:19.909Z,96069.00
2018-08-11T05:19:48.923Z,96070.00
2018-08-11T05:22:17.897Z,96073.00
2018-08-11T05:24:47.164Z,96076.00
2018-08-11T05:27:16.154Z,96078.00
2018-08-11T05:29:45.162Z,96082.00
2018-08-11T05:32:14.154Z,96085.00
2018-08-11T05:34:43.142Z,96085.00
2018-08-11T05:37:12.138Z,96083.00
2018-08-11T05:39:41.150Z,96092.00
2018-08-11T05:42:10.136Z,96094.00
2018-08-11T05:44:39.133Z,96091.00
2018-08-11T05:47:08.190Z,96095.00
2018-08-11T05:49:37.223Z,96091.00
2018-08-11T05:52:06.562Z,96094.00
2018-08-11T05:54:35.554Z,96086.00
2018-08-11T05:57:04.588Z,96096.00
2018-08-11T05:59:33.599Z,96092.00
2018-08-11T06:02:02.609Z,96090.00
2018-08-11T06:04:31.710Z,96095.00
2018-08-11T06:07:00.714Z,96099.00
2018-08-11T06:09:29.810Z,96099.00
2018-08-11T06:11:58.810Z,96104.00
2018-08-11T06:14:27.797Z,96101.00
2018-08-11T06:16:56.809Z,96100.00
2018-08-11T06:19:25.807Z,96103.00
2018-08-11T06:21:55.148Z,96113.00
2018-08-11T06:24:24.170Z,96102.00
2018-08-11T06:26:53.191Z,96098.00
2018-08-11T06:29:22.200Z,96103.00
2018-08-11T06:31:51.370Z,96105.00
2018-08-11T06:34:20.450Z,96110.00
2018-08-11T06:36:49.458Z,96099.00
2018-08-11T06:39:18.446Z,96109.00
2018-08-11T06:41:47.450Z,96113.00
2018-08-11T06:44:16.445Z,96112.00
2018-08-11T06:46:45.501Z,96109.00
2018-08-11T06:49:14.462Z,96110.00
2018-08-11T06:51:43.462Z,96123.00
2018-08-11T06:54:12.467Z,96110.00
2018-08-11T06:56:41.455Z,96114.00
2018-08-11T06:59:10.463Z,96111.00
2018-08-11T07:01:39.455Z,96121.00
2018-08-11T07:04:08.456Z,96121.00
2018-08-11T07:06:37.510Z,96114.00
2018-08-11T07:09:09.246Z,96108.00
2018-08-11T07:11:38.366Z,96115.00
2018-08-11T07:14:07.460Z,96110.00
2018-08-11T07:16:36.622Z,96114.00
2018-08-11T07:19:05.757Z,96121.00
2018-08-11T07:21:34.865Z,96119.00
2018-08-11T07:24:03.973Z,96118.00
2018-08-11T07:26:32.992Z,96117.00
2018-08-11T07:29:01.980Z,96120.00
2018-08-11T07:31:30.963Z,96123.00
2018-08-11T07:33:59.981Z,96115.00
2018-08-11T07:36:29.030Z,96115.00
2018-08-11T07:38:57.970Z,96112.00
2018-08-11T07:41:26.953Z,96110.00
2018-08-11T07:43:55.951Z,96107.00
2018-08-11T07:46:24.941Z,96117.00
2018-08-11T07:48:53.939Z,96118.00
2018-08-11T07:51:22.949Z,96130.00
2018-08-11T07:53:51.937Z,96119.00
2018-08-11T07:56:20.943Z,96127.00
2018-08-11T07:58:49.934Z,96126.00
2018-08-11T08:01:19.086Z,96134.00
2018-08-11T08:03:48.045Z,96129.00
2018-08-11T08:06:17.019Z,96130.00
2018-08-11T08:08:46.031Z,96135.00
2018-08-11T08:11:15.019Z,96130.00
2018-08-11T08:13:44.101Z,96132.00
2018-08-11T08:16:12.998Z,96137.00
2018-08-11T08:18:41.981Z,96147.00
2018-08-11T08:21:10.988Z,96142.00
2018-08-11T08:23:40.002Z,96142.00
2018-08-11T08:26:09.098Z,96138.00
2018-08-11T08:28:38.010Z,96147.00
2018-08-11T08:31:07.025Z,96146.00
2018-08-11T08:33:36.030Z,96141.00
2018-08-11T08:36:05.086Z,96148.00
2018-08-11T08:38:34.082Z,96146.00
2018-08-11T08:41:03.081Z,96158.00
2018-08-11T08:43:32.135Z,96153.00
2018-08-11T08:46:01.119Z,96152.00
2018-08-11T08:48:30.462Z,96162.00
2018-08-11T08:50:59.450Z,96164.00
2018-08-11T08:53:28.451Z,96162.00
2018-08-11T08:55:57.435Z,96155.00
2018-08-11T08:58:26.447Z,96160.00
2018-08-11T09:00:55.478Z,96163.00
2018-08-11T09:03:24.465Z,96155.00
2018-08-11T09:05:53.455Z,96152.00
2018-08-11T09:08:22.463Z,96157.00
2018-08-11T09:10:51.646Z,96146.00
2018-08-11T09:13:20.622Z,96152.00
2018-08-11T09:15:49.621Z,96149.00
2018-08-11T09:18:18.633Z,96147.00
2018-08-11T09:20:47.776Z,96145.00
2018-08-11T09:23:16.760Z,96152.00
2018-08-11T09:25:45.848Z,96152.00
2018-08-11T09:28:14.874Z,96153.00
2018-08-11T09:30:43.878Z,96152.00
2018-08-11T09:33:12.873Z,96144.00
2018-08-11T09:35:41.895Z,96153.00
2018-08-11T09:38:11.012Z,96161.00
2018-08-11T09:40:40.031Z,96142.00
2018-08-11T09:43:09.031Z,96154.00
2018-08-11T09:45:38.098Z,96155.00
2018-08-11T09:48:07.089Z,96154.00
2018-08-11T09:50:36.103Z,96146.00
2018-08-11T09:53:05.277Z,96139.00
2018-08-11T09:55:34.274Z,96140.00
2018-08-11T09:58:03.274Z,96141.00
2018-08-11T10:00:38.523Z,96134.00
2018-08-11T10:03:07.558Z,96138.00
2018-08-11T10:05:36.619Z,96124.00
2018-08-11T10:08:05.602Z,96133.00
2018-08-11T10:10:34.661Z,96133.00
2018-08-11T10:13:03.627Z,96142.00
2018-08-11T10:15:32.655Z,96129.00
2018-08-11T10:18:01.658Z,96131.00
2018-08-11T10:20:30.891Z,96135.00
2018-08-11T10:22:59.870Z,96125.00
2018-08-11T10:25:28.870Z,96131.00
2018-08-11T10:27:57.853Z,96132.00
2018-08-11T10:30:26.922Z,96131.00
2018-08-11T10:32:55.973Z,96127.00
2018-08-11T10:35:25.019Z,96135.00
2018-08-11T10:37:54.026Z,96119.00
2018-08-11T10:40:23.046Z,96129.00
2018-08-11T10:42:52.144Z,96124.00
2018-08-11T10:45:21.158Z,96132.00
2018-08-11T10:47:50.191Z,96117.00
2018-08-11T10:50:19.205Z,96112.00
2018-08-11T10:52:48.185Z,96111.00
2018-08-11T10:55:17.213Z,96119.00
2018-08-11T10:57:46.212Z,96115.00
2018-08-11T11:00:16.232Z,96105.00
2018-08-11T11:02:45.217Z,96109.00
2018-08-11T11:05:14.195Z,96109.00
2018-08-11T11:07:43.173Z,96104.00
2018-08-11T11:10:12.166Z,96100.00
2018-08-11T11:12:41.150Z,96109.00
2018-08-11T11:15:10.486Z,96099.00
2018-08-11T11:17:40.037Z,96096.00
2018-08-11T11:20:11.447Z,96088.00
2018-08-11T11:22:40.996Z,96095.00
2018-08-11T11:25:10.044Z,96101.00
2018-08-11T11:27:39.461Z,96095.00
2018-08-11T11:30:08.552Z,96096.00
2018-08-11T11:32:37.534Z,96082.00
2018-08-11T11:35:06.679Z,96083.00
2018-08-11T11:37:35.655Z,96091.00
2018-08-11T11:40:05.334Z,96085.00
2018-08-11T11:42:34.382Z,96083.00
2018-08-11T11:45:04.313Z,96079.00
2018-08-11T11:47:33.334Z,96078.00
2018-08-11T11:50:02.376Z,96087.00
2018-08-11T11:52:31.366Z,96083.00
2018-08-11T11:55:00.378Z,96081.00
2018-08-11T11:57:29.369Z,96077.00
2018-08-11T11:59:58.454Z,96092.00
2018-08-11T12:02:27.408Z,96084.00
2018-08-11T12:04:56.490Z,96083.00
2018-08-11T12:07:25.511Z,96081.00
2018-08-11T12:09:54.526Z,96076.00
2018-08-11T12:12:23.530Z,96069.00
2018-08-11T12:14:52.567Z,96069.00
2018-08-11T12:17:21.548Z,96063.00
2018-08-11T12:19:50.533Z,96072.00
2018-08-11T12:22:19.619Z,96061.00
2018-08-11T12:24:49.686Z,96061.00
2018-08-11T12:27:18.686Z,96061.00
2018-08-11T12:29:47.665Z,96065.00
2018-08-11T12:32:16.669Z,96055.00
2018-08-11T12:34:45.670Z,96056.00
2018-08-11T12:37:14.674Z,96046.00
2018-08-11T12:39:43.659Z,96042.00
2018-08-11T12:42:12.651Z,96050.00
2018-08-11T12:44:41.684Z,96041.00
2018-08-11T12:47:10.736Z,96045.00
2018-08-11T12:49:39.726Z,96042.00
2018-08-11T12:52:08.854Z,96047.00
2018-08-11T12:54:37.838Z,96035.00
2018-08-11T12:57:06.874Z,96030.00
2018-08-11T12:59:35.850Z,96033.00
2018-08-11T13:02:04.875Z,96034.00
2018-08-11T13:04:33.868Z,96031.00
2018-08-11T13:07:02.986Z,96028.00
2018-08-11T13:09:31.899Z,96033.00
2018-08-11T13:12:00.926Z,96029.00
2018-08-11T13:14:29.922Z,96027.00
2018-08-11T13:16:58.918Z,96017.00
2018-08-11T13:19:27.985Z,96012.00
2018-08-11T13:21:57.101Z,96006.00
2018-08-11T13:24:26.077Z,96005.00
2018-08-11T13:26:55.074Z,95999.00
2018-08-11T13:29:24.090Z,96000.00
2018-08-11T13:31:53.093Z,96008.00
2018-08-11T13:34:22.070Z,95998.00
2018-08-11T13:36:51.054Z,95994.00
2018-08-11T13:39:20.041Z,95987.00
2018-08-11T13:41:50.098Z,95995.00
2018-08-11T13:44:19.990Z,95995.00
2018-08-11T13:46:48.994Z,95988.00
2018-08-11T13:49:17.985Z,95990.00
2018-08-11T13:51:47.014Z,95989.00
2018-08-11T13:54:16.009Z,95977.00
2018-08-11T13:56:44.988Z,95977.00
2018-08-11T13:59:13.983Z,95980.00
2018-08-11T14:01:42.979Z,95976.00
2018-08-11T14:04:11.981Z,95973.00
2018-08-11T14:06:40.965Z,95973.00
2018-08-11T14:09:09.966Z,95981.00
2018-08-11T14:11:38.970Z,95963.00
2018-08-11T14:14:08.115Z,95965.00
2018-08-11T14:16:37.118Z,95963.00
2018-08-11T14:19:06.689Z,95960.00
2018-08-11T14:21:35.670Z,95957.00
2018-08-11T14:24:04.701Z,95954.00
2018-08-11T14:26:33.693Z,95949.00
2018-08-11T14:29:02.677Z,95949.00
2018-08-11T14:31:31.658Z,95948.00
2018-08-11T14:34:00.663Z,95945.00
2018-08-11T14:36:29.683Z,95935.00
2018-08-11T14:38:58.791Z,95942.00
2018-08-11T14:41:27.790Z,95938.00
2018-08-11T14:43:56.781Z,95934.00
2018-08-11T14:46:25.796Z,95936.00
2018-08-11T14:48:54.790Z,95945.00
2018-08-11T14:51:23.774Z,95931.00
2018-08-11T14:53:52.893Z,95934.00
2018-08-11T14:56:21.947Z,95930.00
2018-08-11T14:58:50.885Z,95938.00
2018-08-11T15:01:19.878Z,95928.00
2018-08-11T15:03:48.874Z,95925.00
2018-08-11T15:06:17.902Z,95923.00
2018-08-11T15:08:46.895Z,95915.00
2018-08-11T15:11:15.899Z,95919.00
2018-08-11T15:13:44.898Z,95922.00
2018-08-11T15:16:13.926Z,95926.00
2018-08-11T15:18:42.919Z,95918.00
2018-08-11T15:21:11.918Z,95914.00
2018-08-11T15:23:41.026Z,95916.00
2018-08-11T15:26:10.026Z,95921.00
2018-08-11T15:28:39.035Z,95914.00
2018-08-11T15:31:08.098Z,95915.00
2018-08-11T15:33:37.098Z,95918.00
2018-08-11T15:36:06.077Z,95916.00
2018-08-11T15:38:35.072Z,95914.00
2018-08-11T15:41:04.894Z,95922.00
2018-08-11T15:43:33.887Z,95924.00
2018-08-11T15:46:02.893Z,95934.00
2018-08-11T15:48:31.963Z,95929.00
2018-08-11T15:51:00.955Z,95922.00
2018-08-11T15:53:29.936Z,95916.00
2018-08-11T15:55:58.943Z,95912.00
2018-08-11T15:58:27.946Z,95903.00
2018-08-11T16:00:56.929Z,95912.00
2018-08-11T16:03:25.943Z,95906.00
2018-08-11T16:05:54.937Z,95908.00
2018-08-11T16:08:23.950Z,95904.00
2018-08-11T16:10:52.946Z,95917.00
2018-08-11T16:13:21.949Z,95908.00
2018-08-11T16:15:50.966Z,95912.00
2018-08-11T16:18:19.958Z,95918.00
2018-08-11T16:20:48.967Z,95919.00
2018-08-11T16:23:17.961Z,95916.00
2018-08-11T16:25:46.941Z,95927.00
2018-08-11T16:28:15.998Z,95918.00
2018-08-11T16:30:44.993Z,95910.00
2018-08-11T16:33:13.998Z,95916.00
2018-08-11T16:35:43.038Z,95915.00
2018-08-11T16:38:12.063Z,95919.00
2018-08-11T16:40:41.161Z,95912.00
2018-08-11T16:43:10.146Z,95913.00
2018-08-11T16:45:39.142Z,95912.00
2018-08-11T16:48:08.162Z,95916.00
2018-08-11T16:50:37.170Z,95916.00
2018-08-11T16:53:06.206Z,95919.00
2018-08-11T16:55:35.198Z,95916.00
2018-08-11T16:58:04.287Z,95916.00
2018-08-11T17:00:33.290Z,95922.00
2018-08-11T17:03:02.316Z,95930.00
2018-08-11T17:05:31.292Z,95934.00
2018-08-11T17:08:00.267Z,95932.00
2018-08-11T17:10:29.318Z,95928.00
2018-08-11T17:12:58.402Z,95932.00
2018-08-11T17:15:27.419Z,95930.00
2018-08-11T17:17:56.445Z,95931.00
2018-08-11T17:20:25.450Z,95933.00
2018-08-11T17:22:54.446Z,95926.00
2018-08-11T17:25:23.446Z,95929.00
2018-08-11T17:27:52.441Z,95921.00
2018-08-11T17:30:21.441Z,95929.00
2018-08-11T17:32:50.462Z,95931.00
2018-08-11T17:35:19.454Z,95925.00
2018-08-11T17:37:48.534Z,95928.00
2018-08-11T17:40:17.650Z,95925.00
2018-08-11T17:42:46.639Z,95928.00
2018-08-11T17:45:15.657Z,95933.00
2018-08-11T17:47:44.646Z,95926.00
2018-08-11T17:50:13.645Z,95927.00
2018-08-11T17:52:42.677Z,95938.00
2018-08-11T17:55:11.718Z,95931.00
2018-08-11T17:57:40.776Z,95927.00
2018-08-11T18:00:09.790Z,95934.00
2018-08-11T18:02:38.766Z,95932.00
2018-08-11T18:05:07.793Z,95927.00
2018-08-11T18:07:36.886Z,95925.00
2018-08-11T18:10:06.382Z,95931.00
2018-08-11T18:12:35.385Z,95927.00
2018-08-11T18:15:04.441Z,95930.00
2018-08-11T18:17:33.457Z,95928.00
2018-08-11T18:20:02.462Z,95932.00
2018-08-11T18:22:31.477Z,95924.00
2018-08-11T18:25:00.461Z,95937.00
2018-08-11T18:27:29.443Z,95938.00
2018-08-11T18:29:58.427Z,95930.00
2018-08-11T18:32:27.406Z,95929.00
2018-08-11T18:34:56.420Z,95938.00
2018-08-11T18:37:25.411Z,95936.00
2018-08-11T18:39:54.405Z,95940.00
2018-08-11T18:42:23.378Z,95944.00
2018-08-11T18:44:52.350Z,95943.00
2018-08-11T18:47:21.348Z,95943.00
2018-08-11T18:49:50.329Z,95951.00
2018-08-11T18:52:19.323Z,95950.00
2018-08-11T18:54:48.354Z,95947.00
2018-08-11T18:57:17.342Z,95957.00
2018-08-11T18:59:46.359Z,95954.00
2018-08-11T19:02:15.466Z,95953.00
2018-08-11T19:04:44.461Z,95959.00
2018-08-11T19:07:13.473Z,95961.00
2018-08-11T19:09:42.468Z,95956.00
2018-08-11T19:12:11.462Z,95963.00
2018-08-11T19:14:40.450Z,95957.00
2018-08-11T19:17:09.450Z,95965.00
2018-08-11T19:19:38.498Z,95966.00
2018-08-11T19:22:07.574Z,95965.00
2018-08-11T19:24:36.574Z,95970.00
2018-08-11T19:27:05.603Z,95980.00
2018-08-11T19:29:34.654Z,95981.00
2018-08-11T19:32:03.670Z,95978.00
2018-08-11T19:34:32.654Z,95986.00
2018-08-11T19:37:01.637Z,95975.00
2018-08-11T19:39:30.678Z,95978.00
2018-08-11T19:41:59.787Z,95970.00
2018-08-11T19:44:28.792Z,95965.00
2018-08-11T19:46:57.778Z,95973.00
2018-08-11T19:49:26.758Z,95983.00
2018-08-11T19:51:55.797Z,95993.00
2018-08-11T19:54:24.806Z,95985.00
2018-08-11T19:56:54.621Z,95975.00
2018-08-11T19:59:23.615Z,95983.00
2018-08-11T20:01:52.618Z,95981.00
2018-08-11T20:04:21.627Z,95985.00
2018-08-11T20:06:50.615Z,95974.00
2018-08-11T20:09:19.610Z,95985.00
2018-08-11T20:11:48.614Z,95977.00
2018-08-11T20:14:17.622Z,95986.00
2018-08-11T20:16:46.678Z,95976.00
2018-08-11T20:19:15.807Z,95981.00
2018-08-11T20:21:44.719Z,95989.00
2018-08-11T20:24:13.721Z,95988.00
2018-08-11T20:26:42.738Z,95992.00
2018-08-11T20:29:11.868Z,95990.00
2018-08-11T20:31:40.866Z,95986.00
2018-08-11T20:34:09.886Z,95991.00
2018-08-11T20:36:38.878Z,95983.00
2018-08-11T20:39:16.483Z,95985.00
2018-08-11T20:41:47.415Z,95982.00
2018-08-11T20:44:16.409Z,95979.00
2018-08-11T20:46:45.418Z,95985.00
2018-08-11T20:49:14.410Z,95991.00
2018-08-11T20:51:49.388Z,95988.00
2018-08-11T20:54:18.398Z,95988.00
2018-08-11T20:56:47.390Z,95991.00
2018-08-11T20:59:16.389Z,95992.00
2018-08-11T21:01:45.427Z,95986.00
2018-08-11T21:04:14.435Z,95985.00
2018-08-11T21:06:43.421Z,95991.00
2018-08-11T21:09:13.406Z,95993.00
2018-08-11T21:11:42.421Z,95989.00
2018-08-11T21:14:11.718Z,95986.00
2018-08-11T21:16:40.751Z,95987.00
2018-08-11T21:19:09.777Z,95989.00
2018-08-11T21:21:38.773Z,95993.00
2018-08-11T21:24:07.782Z,95984.00
2018-08-11T21:26:36.809Z,95993.00
2018-08-11T21:29:05.909Z,95992.00
2018-08-11T21:31:34.899Z,95987.00
2018-08-11T21:34:04.034Z,95983.00
2018-08-11T21:36:33.024Z,95978.00
2018-08-11T21:39:02.062Z,95984.00
2018-08-11T21:41:31.046Z,95982.00
2018-08-11T21:44:00.039Z,95986.00
2018-08-11T21:46:29.029Z,95980.00
2018-08-11T21:48:58.055Z,95983.00
2018-08-11T21:51:27.045Z,95980.00
2018-08-11T21:53:56.065Z,95982.00
2018-08-11T21:56:25.081Z,95973.00
2018-08-11T21:58:54.101Z,95980.00
2018-08-11T22:01:23.102Z,95974.00
2018-08-11T22:03:52.227Z,95976.00
2018-08-11T22:06:21.226Z,95964.00
2018-08-11T22:08:50.242Z,95966.00
2018-08-11T22:11:19.280Z,95970.00
2018-08-11T22:13:48.269Z,95973.00
2018-08-11T22:16:17.291Z,95970.00
2018-08-11T22:18:46.274Z,95959.00
2018-08-11T22:21:15.281Z,95965.00
2018-08-11T22:23:44.293Z,95952.00
2018-08-11T22:26:13.286Z,95957.00
2018-08-11T22:28:42.294Z,95959.00
2018-08-11T22:31:11.282Z,95954.00
2018-08-11T22:33:40.298Z,95950.00
2018-08-11T22:36:09.296Z,95949.00
2018-08-11T22:38:38.288Z,95960.00
2018-08-11T22:41:07.343Z,95957.00
2018-08-11T22:43:36.350Z,95954.00
2018-08-11T22:46:05.348Z,95952.00
2018-08-11T22:48:34.348Z,95950.00
2018-08-11T22:51:03.334Z,95949.00
2018-08-11T22:53:36.946Z,95953.00
2018-08-11T22:56:06.261Z,95952.00
2018-08-11T22:58:35.261Z,95945.00
2018-08-11T23:01:05.222Z,95949.00
2018-08-11T23:03:37.086Z,95949.00
2018-08-11T23:06:06.125Z,95941.00
2018-08-11T23:08:36.202Z,95946.00
2018-08-11T23:11:05.214Z,95942.00
2018-08-11T23:13:36.585Z,95942.00
2018-08-11T23:16:07.986Z,95934.00
2018-08-11T23:18:39.054Z,95930.00
2018-08-11T23:21:08.099Z,95924.00
2018-08-11T23:23:37.087Z,95932.00
2018-08-11T23:26:06.078Z,95922.00
2018-08-11T23:28:35.079Z,95922.00
2018-08-11T23:31:04.049Z,95921.00
2018-08-11T23:33:33.046Z,95920.00
2018-08-11T23:36:02.177Z,95922.00
2018-08-11T23:38:31.186Z,95916.00
2018-08-11T23:41:00.194Z,95921.00
2018-08-11T23:43:29.189Z,95914.00
2018-08-11T23:45:58.165Z,95909.00
2018-08-11T23:48:27.162Z,95907.00
2018-08-11T23:50:56.173Z,95910.00
2018-08-11T23:53:25.153Z,95913.00
2018-08-11T23:55:54.146Z,95904.00
2018-08-11T23:58:23.175Z,95905.00
